createdAt,value
2018-01-12T00:00:55.800Z,99444.34
2018-01-12T00:03:24.277Z,99449.78
2018-01-12T00:05:52.564Z,99453.09
2018-01-12T00:08:20.834Z,99452.98
2018-01-12T00:10:49.139Z,99452.53
2018-01-12T00:13:17.411Z,99452.17
2018-01-12T00:15:45.722Z,99440.97
2018-01-12T00:18:14.042Z,99456.58
2018-01-12T00:20:42.321Z,99454.70
2018-01-12T00:23:10.592Z,99454.14
2018-01-12T00:25:38.902Z,99456.38
2018-01-12T00:28:07.172Z,99450.66
2018-01-12T00:30:35.796Z,99454.09
2018-01-12T00:33:04.077Z,99449.05
2018-01-12T00:35:32.388Z,99445.23
2018-01-12T00:38:00.676Z,99451.92
2018-01-12T00:40:28.988Z,99455.92
2018-01-12T00:42:57.297Z,99452.59
2018-01-12T00:45:25.563Z,99454.45
2018-01-12T00:47:53.883Z,99458.55
2018-01-12T00:50:22.159Z,99462.55
2018-01-12T00:52:50.549Z,99459.72
2018-01-12T00:55:18.830Z,99468.19
2018-01-12T00:57:47.131Z,99470.91
2018-01-12T01:00:15.401Z,99472.08
2018-01-12T01:02:43.719Z,99468.34
2018-01-12T01:05:11.984Z,99459.47
2018-01-12T01:07:40.298Z,99469.47
2018-01-12T01:10:08.564Z,99475.70
2018-01-12T01:12:36.852Z,99477.72
2018-01-12T01:15:05.131Z,99473.36
2018-01-12T01:17:33.484Z,99479.28
2018-01-12T01:20:01.765Z,99487.55
2018-01-12T01:22:30.075Z,99484.81
2018-01-12T01:24:58.374Z,99477.41
2018-01-12T01:27:26.672Z,99487.74
2018-01-12T01:29:54.974Z,99497.17
2018-01-12T01:32:23.248Z,99501.73
2018-01-12T01:34:51.567Z,99507.00
2018-01-12T01:37:19.843Z,99506.36
2018-01-12T01:39:48.134Z,99512.98
2018-01-12T01:42:16.439Z,99518.36
2018-01-12T01:44:44.728Z,99528.95
2018-01-12T01:47:13.004Z,99514.19
2018-01-12T01:49:41.308Z,99515.16
2018-01-12T01:52:09.584Z,99520.53
2018-01-12T01:54:37.895Z,99520.23
2018-01-12T01:57:06.184Z,99525.23
2018-01-12T01:59:34.447Z,99528.64
2018-01-12T02:02:03.298Z,99526.11
2018-01-12T02:04:31.641Z,99532.05
2018-01-12T02:06:59.908Z,99533.73
2018-01-12T02:09:28.162Z,99529.77
2018-01-12T02:11:56.469Z,99531.34
2018-01-12T02:14:24.722Z,99517.08
2018-01-12T02:16:53.072Z,99528.79
2018-01-12T02:19:21.331Z,99525.86
2018-01-12T02:21:49.656Z,99533.50
2018-01-12T02:24:17.919Z,99534.02
2018-01-12T02:26:46.199Z,99534.77
2018-01-12T02:29:14.499Z,99537.84
2018-01-12T02:31:42.751Z,99531.45
2018-01-12T02:34:11.047Z,99537.73
2018-01-12T02:36:39.371Z,99531.31
2018-01-12T02:39:07.687Z,99537.14
2018-01-12T02:41:35.985Z,99538.02
2018-01-12T02:44:05.053Z,99535.33
2018-01-12T02:46:33.332Z,99539.98
2018-01-12T02:49:01.632Z,99530.50
2018-01-12T02:51:29.894Z,99546.52
2018-01-12T02:53:58.227Z,99544.20
2018-01-12T02:56:26.516Z,99551.09
2018-01-12T02:58:54.783Z,99547.73
2018-01-12T03:01:23.127Z,99552.66
2018-01-12T03:03:51.382Z,99552.98
2018-01-12T03:06:19.686Z,99547.05
2018-01-12T03:08:48.031Z,99551.19
2018-01-12T03:11:16.343Z,99556.00
2018-01-12T03:13:44.625Z,99556.31
2018-01-12T03:16:13.040Z,99557.02
2018-01-12T03:18:41.332Z,99556.45
2018-01-12T03:21:09.615Z,99548.36
2018-01-12T03:23:38.006Z,99553.58
2018-01-12T03:26:06.239Z,99556.97
2018-01-12T03:28:34.548Z,99550.00
2018-01-12T03:31:02.812Z,99562.09
2018-01-12T03:33:31.108Z,99567.27
2018-01-12T03:35:59.389Z,99557.13
2018-01-12T03:38:27.689Z,99563.52
2018-01-12T03:40:55.982Z,99564.30
2018-01-12T03:43:24.287Z,99565.62
2018-01-12T03:45:52.570Z,99565.11
2018-01-12T03:48:20.847Z,99556.38
2018-01-12T03:50:49.145Z,99571.64
2018-01-12T03:53:17.422Z,99559.81
2018-01-12T03:55:45.739Z,99565.80
2018-01-12T03:58:14.003Z,99562.58
2018-01-12T04:00:42.323Z,99567.02
2018-01-12T04:03:10.614Z,99571.08
2018-01-12T04:05:38.914Z,99567.39
2018-01-12T04:08:07.186Z,99563.23
2018-01-12T04:10:35.467Z,99555.59
2018-01-12T04:13:03.791Z,99569.64
2018-01-12T04:15:32.054Z,99570.02
2018-01-12T04:18:00.368Z,99572.28
2018-01-12T04:20:28.644Z,99565.41
2018-01-12T04:22:56.948Z,99567.92
2018-01-12T04:25:25.227Z,99574.27
2018-01-12T04:27:53.511Z,99572.90
2018-01-12T04:30:21.798Z,99563.02
2018-01-12T04:32:50.116Z,99569.08
2018-01-12T04:35:18.390Z,99572.66
2018-01-12T04:37:46.672Z,99570.51
2018-01-12T04:40:14.947Z,99572.90
2018-01-12T04:42:43.239Z,99572.36
2018-01-12T04:45:11.514Z,99570.70
2018-01-12T04:47:39.822Z,99567.95
2018-01-12T04:50:08.127Z,99571.12
2018-01-12T04:52:36.409Z,99580.94
2018-01-12T04:55:05.012Z,99580.16
2018-01-12T04:57:33.629Z,99582.23
2018-01-12T05:00:01.943Z,99580.34
2018-01-12T05:02:30.228Z,99585.98
2018-01-12T05:04:58.524Z,99583.09
2018-01-12T05:07:26.808Z,99586.73
2018-01-12T05:09:55.124Z,99590.20
2018-01-12T05:12:23.388Z,99594.45
2018-01-12T05:14:51.701Z,99593.45
2018-01-12T05:17:19.971Z,99596.69
2018-01-12T05:19:48.255Z,99602.81
2018-01-12T05:22:16.542Z,99598.58
2018-01-12T05:24:44.836Z,99602.31
2018-01-12T05:27:13.142Z,99602.77
2018-01-12T05:29:41.394Z,99601.52
2018-01-12T05:32:09.704Z,99597.45
2018-01-12T05:34:37.984Z,99598.20
2018-01-12T05:37:06.287Z,99589.16
2018-01-12T05:39:34.547Z,99598.25
2018-01-12T05:42:02.827Z,99606.10
2018-01-12T05:44:31.092Z,99615.50
2018-01-12T05:46:59.566Z,99613.37
2018-01-12T05:49:27.788Z,99615.95
2018-01-12T05:51:56.086Z,99609.95
2018-01-12T05:54:24.357Z,99613.20
2018-01-12T05:56:52.642Z,99606.78
2018-01-12T05:59:21.253Z,99613.80
2018-01-12T06:02:01.300Z,99607.06
2018-01-12T06:04:41.254Z,99605.11
2018-01-12T06:07:09.548Z,99606.98
2018-01-12T06:09:37.889Z,99607.97
2018-01-12T06:12:06.147Z,99602.52
2018-01-12T06:14:34.440Z,99612.31
2018-01-12T06:17:02.701Z,99610.21
2018-01-12T06:19:30.994Z,99618.69
2018-01-12T06:21:59.255Z,99616.00
2018-01-12T06:24:27.566Z,99626.42
2018-01-12T06:26:55.835Z,99629.84
2018-01-12T06:29:24.142Z,99634.61
2018-01-12T06:31:52.420Z,99634.84
2018-01-12T06:34:20.706Z,99638.38
2018-01-12T06:36:48.980Z,99641.42
2018-01-12T06:39:17.292Z,99642.32
2018-01-12T06:41:45.547Z,99644.77
2018-01-12T06:44:13.856Z,99631.44
2018-01-12T06:46:42.131Z,99653.30
2018-01-12T06:49:10.429Z,99652.78
2018-01-12T06:51:38.696Z,99651.95
2018-01-12T06:54:06.958Z,99652.92
2018-01-12T06:56:35.969Z,99653.53
2018-01-12T06:59:04.356Z,99654.28
2018-01-12T07:01:32.603Z,99657.94
2018-01-12T07:04:00.883Z,99661.03
2018-01-12T07:06:30.004Z,99663.55
2018-01-12T07:08:58.273Z,99663.61
2018-01-12T07:11:26.953Z,99667.73
2018-01-12T07:13:55.220Z,99669.27
2018-01-12T07:16:23.526Z,99671.00
2018-01-12T07:18:51.779Z,99675.95
2018-01-12T07:21:31.926Z,99676.83
2018-01-12T07:24:00.252Z,99676.95
2018-01-12T07:26:28.575Z,99682.78
2018-01-12T07:28:56.852Z,99684.08
2018-01-12T07:31:25.128Z,99688.33
2018-01-12T07:33:53.411Z,99656.98
2018-01-12T07:36:21.694Z,99688.78
2018-01-12T07:38:50.045Z,99659.03
2018-01-12T07:41:18.323Z,99694.05
2018-01-12T07:43:46.635Z,99686.38
2018-01-12T07:46:14.894Z,99684.02
2018-01-12T07:48:43.175Z,99682.42
2018-01-12T07:51:11.464Z,99690.65
2018-01-12T07:53:39.794Z,99686.72
2018-01-12T07:56:08.093Z,99685.45
2018-01-12T07:58:36.357Z,99693.92
2018-01-12T08:01:10.415Z,99684.26
2018-01-12T08:03:38.678Z,99690.03
2018-01-12T08:06:06.977Z,99701.66
2018-01-12T08:08:35.278Z,99701.44
2018-01-12T08:11:04.366Z,99703.08
2018-01-12T08:13:32.693Z,99709.63
2018-01-12T08:16:00.963Z,99715.22
2018-01-12T08:18:29.242Z,99722.20
2018-01-12T08:20:57.539Z,99723.37
2018-01-12T08:23:25.985Z,99728.45
2018-01-12T08:25:54.550Z,99735.33
2018-01-12T08:28:22.809Z,99730.79
2018-01-12T08:30:51.270Z,99735.94
2018-01-12T08:33:19.531Z,99741.49
2018-01-12T08:35:47.896Z,99736.20
2018-01-12T08:38:16.227Z,99734.84
2018-01-12T08:40:44.501Z,99738.98
2018-01-12T08:43:12.808Z,99743.66
2018-01-12T08:45:41.087Z,99736.52
2018-01-12T08:48:09.377Z,99731.94
2018-01-12T08:50:37.675Z,99736.08
2018-01-12T08:53:05.963Z,99747.84
2018-01-12T08:55:34.285Z,99745.52
2018-01-12T08:58:02.574Z,99739.53
2018-01-12T09:00:30.862Z,99744.35
2018-01-12T09:02:59.213Z,99752.66
2018-01-12T09:05:27.680Z,99761.58
2018-01-12T09:07:55.979Z,99755.92
2018-01-12T09:10:24.232Z,99759.72
2018-01-12T09:12:53.447Z,99765.50
2018-01-12T09:15:22.536Z,99769.55
2018-01-12T09:17:50.802Z,99768.99
2018-01-12T09:20:21.838Z,99767.39
2018-01-12T09:22:50.081Z,99772.13
2018-01-12T09:25:25.908Z,99747.62
2018-01-12T09:27:54.172Z,99774.71
2018-01-12T09:30:22.491Z,99776.70
2018-01-12T09:32:50.762Z,99778.87
2018-01-12T09:35:19.067Z,99767.50
2018-01-12T09:37:59.403Z,99776.47
2018-01-12T09:40:31.560Z,99783.98
2018-01-12T09:42:59.848Z,99790.41
2018-01-12T09:45:28.147Z,99786.43
2018-01-12T09:48:11.000Z,99786.70
2018-01-12T09:50:39.308Z,99780.65
2018-01-12T09:53:07.567Z,99783.27
2018-01-12T09:55:35.893Z,99786.81
2018-01-12T09:58:04.183Z,99792.80
2018-01-12T10:00:40.359Z,99796.69
2018-01-12T10:03:08.666Z,99803.89
2018-01-12T10:05:37.014Z,99801.97
2018-01-12T10:08:05.292Z,99805.91
2018-01-12T10:10:33.966Z,99808.77
2018-01-12T10:13:02.283Z,99807.05
2018-01-12T10:15:30.572Z,99803.63
2018-01-12T10:17:58.905Z,99802.05
2018-01-12T10:20:29.929Z,99800.59
2018-01-12T10:22:58.265Z,99805.89
2018-01-12T10:25:26.506Z,99796.26
2018-01-12T10:27:55.142Z,99790.09
2018-01-12T10:30:23.465Z,99801.22
2018-01-12T10:33:03.608Z,99797.96
2018-01-12T10:35:31.941Z,99790.50
2018-01-12T10:38:00.235Z,99796.09
2018-01-12T10:40:52.938Z,99789.21
2018-01-12T10:45:55.258Z,99796.45
2018-01-12T10:51:36.465Z,99800.63
2018-01-12T10:54:04.750Z,99797.77
2018-01-12T10:56:33.067Z,99797.77
2018-01-12T10:59:01.375Z,99795.55
2018-01-12T11:01:29.679Z,99786.72
2018-01-12T11:03:58.016Z,99785.92
2018-01-12T11:06:26.304Z,99775.61
2018-01-12T11:08:54.650Z,99771.70
2018-01-12T11:11:22.929Z,99779.13
2018-01-12T11:13:51.271Z,99780.86
2018-01-12T11:16:19.558Z,99781.81
2018-01-12T11:18:47.883Z,99784.41
2018-01-12T11:21:16.166Z,99782.08
2018-01-12T11:23:44.466Z,99779.39
2018-01-12T11:26:12.892Z,99776.89
2018-01-12T11:28:41.174Z,99777.14
2018-01-12T11:31:10.665Z,99776.65
2018-01-12T11:33:38.967Z,99775.31
2018-01-12T11:36:07.339Z,99769.06
2018-01-12T11:38:35.615Z,99770.95
2018-01-12T11:41:03.946Z,99764.91
2018-01-12T11:43:32.233Z,99767.80
2018-01-12T11:46:00.619Z,99759.52
2018-01-12T11:48:28.894Z,99758.76
2018-01-12T11:50:57.240Z,99752.78
2018-01-12T11:53:25.564Z,99754.91
2018-01-12T11:55:53.872Z,99747.75
2018-01-12T11:58:22.155Z,99742.95
2018-01-12T12:00:51.207Z,99749.95
2018-01-12T12:03:19.552Z,99749.69
2018-01-12T12:05:47.802Z,99749.47
2018-01-12T12:08:16.147Z,99745.27
2018-01-12T12:10:44.436Z,99743.69
2018-01-12T12:13:12.778Z,99731.22
2018-01-12T12:15:41.152Z,99738.53
2018-01-12T12:18:09.514Z,99737.80
2018-01-12T12:20:37.762Z,99741.77
2018-01-12T12:23:06.092Z,99728.66
2018-01-12T12:25:34.354Z,99733.59
2018-01-12T12:28:02.672Z,99735.25
2018-01-12T12:30:30.996Z,99722.05
2018-01-12T12:32:59.344Z,99729.73
2018-01-12T12:35:28.452Z,99724.27
2018-01-12T12:37:56.745Z,99727.77
2018-01-12T12:40:25.073Z,99725.25
2018-01-12T12:42:53.348Z,99721.50
2018-01-12T12:45:21.663Z,99724.03
2018-01-12T12:47:50.040Z,99719.88
2018-01-12T12:50:18.374Z,99721.91
2018-01-12T12:52:46.646Z,99724.23
2018-01-12T12:55:14.996Z,99732.03
2018-01-12T12:57:43.271Z,99734.95
2018-01-12T13:00:11.580Z,99728.62
2018-01-12T13:02:39.870Z,99732.80
2018-01-12T13:05:08.217Z,99731.27
2018-01-12T13:07:36.516Z,99719.39
2018-01-12T13:10:05.183Z,99736.20
2018-01-12T13:12:33.527Z,99734.37
2018-01-12T13:15:03.753Z,99726.37
2018-01-12T13:17:32.111Z,99740.13
2018-01-12T13:20:00.405Z,99737.35
2018-01-12T13:22:28.724Z,99729.08
2018-01-12T13:24:56.995Z,99732.82
2018-01-12T13:27:25.321Z,99746.06
2018-01-12T13:29:54.179Z,99745.57
2018-01-12T13:32:22.513Z,99726.53
2018-01-12T13:34:50.799Z,99745.62
2018-01-12T13:37:19.941Z,99737.43
2018-01-12T13:39:48.231Z,99746.53
2018-01-12T13:42:16.820Z,99732.31
2018-01-12T13:44:45.217Z,99745.05
2018-01-12T13:47:13.524Z,99742.48
2018-01-12T13:49:41.815Z,99706.99
2018-01-12T13:52:10.071Z,99738.30
2018-01-12T13:54:38.382Z,99740.94
2018-01-12T13:57:06.694Z,99746.84
2018-01-12T13:59:34.988Z,99742.98
2018-01-12T14:02:03.263Z,99748.81
2018-01-12T14:04:31.591Z,99745.47
2018-01-12T14:06:59.894Z,99744.19
2018-01-12T14:09:28.247Z,99755.67
2018-01-12T14:11:56.548Z,99751.36
2018-01-12T14:14:24.828Z,99754.35
2018-01-12T14:16:53.156Z,99753.73
2018-01-12T14:19:21.444Z,99755.65
2018-01-12T14:21:49.718Z,99752.40
2018-01-12T14:24:17.994Z,99755.81
2018-01-12T14:26:46.380Z,99755.19
2018-01-12T14:29:14.593Z,99752.55
2018-01-12T14:31:42.917Z,99754.58
2018-01-12T14:34:11.198Z,99749.84
2018-01-12T14:36:39.507Z,99756.81
2018-01-12T14:39:07.802Z,99770.50
2018-01-12T14:41:36.109Z,99767.51
2018-01-12T14:44:05.137Z,99754.10
2018-01-12T14:46:33.483Z,99765.92
2018-01-12T14:49:01.775Z,99770.98
2018-01-12T14:51:30.121Z,99769.53
2018-01-12T14:53:58.448Z,99769.83
2018-01-12T14:56:26.743Z,99774.30
2018-01-12T14:58:55.043Z,99777.98
2018-01-12T15:01:23.314Z,99784.07
2018-01-12T15:03:51.636Z,99769.38
2018-01-12T15:06:19.928Z,99784.36
2018-01-12T15:08:48.251Z,99784.26
2018-01-12T15:11:16.542Z,99784.06
2018-01-12T15:13:44.862Z,99766.49
2018-01-12T15:16:13.180Z,99785.03
2018-01-12T15:18:41.472Z,99791.97
2018-01-12T15:21:09.848Z,99794.47
2018-01-12T15:23:38.135Z,99780.68
2018-01-12T15:26:06.439Z,99798.11
2018-01-12T15:28:34.716Z,99783.38
2018-01-12T15:31:03.031Z,99790.88
2018-01-12T15:33:31.487Z,99792.46
2018-01-12T15:36:00.021Z,99764.53
2018-01-12T15:38:28.324Z,99794.89
2018-01-12T15:40:56.623Z,99804.47
2018-01-12T15:43:24.890Z,99794.65
2018-01-12T15:45:53.294Z,99800.32
2018-01-12T15:48:21.556Z,99803.77
2018-01-12T15:50:50.171Z,99809.42
2018-01-12T15:53:18.534Z,99779.98
2018-01-12T15:55:46.872Z,99810.20
2018-01-12T15:58:15.159Z,99808.02
2018-01-12T16:00:43.472Z,99815.10
2018-01-12T16:03:11.746Z,99812.27
2018-01-12T16:05:40.089Z,99820.73
2018-01-12T16:08:08.449Z,99824.69
2018-01-12T16:10:36.752Z,99824.26
2018-01-12T16:13:05.062Z,99830.38
2018-01-12T16:15:33.763Z,99824.80
2018-01-12T16:18:02.075Z,99822.66
2018-01-12T16:20:30.387Z,99824.08
2018-01-12T16:22:58.709Z,99822.36
2018-01-12T16:25:27.004Z,99816.55
2018-01-12T16:27:55.369Z,99823.16
2018-01-12T16:30:23.659Z,99822.33
2018-01-12T16:32:51.962Z,99819.52
2018-01-12T16:35:20.238Z,99819.55
2018-01-12T16:37:48.551Z,99824.13
2018-01-12T16:40:17.589Z,99831.18
2018-01-12T16:42:45.890Z,99829.41
2018-01-12T16:45:14.231Z,99830.61
2018-01-12T16:47:43.304Z,99830.19
2018-01-12T16:50:11.621Z,99823.94
2018-01-12T16:52:39.901Z,99819.88
2018-01-12T16:55:08.231Z,99825.20
2018-01-12T16:57:36.824Z,99829.90
2018-01-12T17:00:05.504Z,99820.69
2018-01-12T17:02:33.787Z,99822.47
2018-01-12T17:05:02.719Z,99835.02
2018-01-12T17:07:30.986Z,99832.52
2018-01-12T17:09:59.303Z,99832.40
2018-01-12T17:12:27.651Z,99836.16
2018-01-12T17:14:55.956Z,99818.34
2018-01-12T17:17:24.284Z,99828.10
2018-01-12T17:19:52.536Z,99828.25
2018-01-12T17:22:20.879Z,99822.59
2018-01-12T17:24:49.168Z,99818.91
2018-01-12T17:27:17.490Z,99824.70
2018-01-12T17:29:45.774Z,99821.73
2018-01-12T17:32:14.098Z,99821.84
2018-01-12T17:34:42.383Z,99814.88
2018-01-12T17:37:10.701Z,99819.84
2018-01-12T17:39:38.991Z,99811.89
2018-01-12T17:42:07.797Z,99820.99
2018-01-12T17:44:36.381Z,99823.56
2018-01-12T17:47:05.013Z,99822.83
2018-01-12T17:49:33.474Z,99823.91
2018-01-12T17:52:01.741Z,99826.05
2018-01-12T17:54:30.034Z,99814.39
2018-01-12T17:56:58.488Z,99832.73
2018-01-12T17:59:26.742Z,99828.03
2018-01-12T18:01:55.026Z,99829.18
2018-01-12T18:04:23.383Z,99829.95
2018-01-12T18:06:51.717Z,99830.67
2018-01-12T18:09:19.995Z,99830.91
2018-01-12T18:11:48.375Z,99830.84
2018-01-12T18:14:16.685Z,99829.18
2018-01-12T18:16:44.984Z,99829.83
2018-01-12T18:19:13.270Z,99823.86
2018-01-12T18:21:41.619Z,99821.80
2018-01-12T18:24:09.917Z,99822.66
2018-01-12T18:26:38.211Z,99814.12
2018-01-12T18:29:06.492Z,99816.02
2018-01-12T18:31:34.832Z,99814.94
2018-01-12T18:34:03.112Z,99818.18
2018-01-12T18:36:31.415Z,99817.89
2018-01-12T18:38:59.723Z,99825.13
2018-01-12T18:41:28.010Z,99825.07
2018-01-12T18:43:56.299Z,99814.23
2018-01-12T18:46:24.563Z,99824.33
2018-01-12T18:48:52.900Z,99828.72
2018-01-12T18:51:21.269Z,99827.88
2018-01-12T18:53:49.549Z,99831.29
2018-01-12T18:56:17.805Z,99835.82
2018-01-12T18:58:46.444Z,99840.52
2018-01-12T19:01:14.749Z,99832.23
2018-01-12T19:03:43.045Z,99836.16
2018-01-12T19:06:11.326Z,99833.06
2018-01-12T19:08:39.608Z,99822.89
2018-01-12T19:11:07.894Z,99839.43
2018-01-12T19:13:36.243Z,99837.10
2018-01-12T19:16:04.554Z,99840.14
2018-01-12T19:18:32.840Z,99842.41
2018-01-12T19:21:01.143Z,99839.89
2018-01-12T19:23:29.461Z,99836.59
2018-01-12T19:25:57.726Z,99833.19
2018-01-12T19:28:26.020Z,99843.48
2018-01-12T19:30:54.365Z,99828.16
2018-01-12T19:33:22.673Z,99837.20
2018-01-12T19:35:50.970Z,99842.06
2018-01-12T19:38:19.233Z,99807.47
2018-01-12T19:40:47.539Z,99834.20
2018-01-12T19:43:16.718Z,99825.22
2018-01-12T19:45:44.963Z,99834.70
2018-01-12T19:48:13.268Z,99832.27
2018-01-12T19:50:41.604Z,99836.39
2018-01-12T19:53:10.199Z,99831.80
2018-01-12T19:55:38.474Z,99831.73
2018-01-12T19:58:06.819Z,99836.27
2018-01-12T20:00:35.098Z,99838.63
2018-01-12T20:03:03.387Z,99839.07
2018-01-12T20:05:31.691Z,99841.37
2018-01-12T20:07:59.976Z,99845.95
2018-01-12T20:10:28.254Z,99846.73
2018-01-12T20:12:56.550Z,99849.77
2018-01-12T20:15:24.875Z,99848.25
2018-01-12T20:17:53.176Z,99844.64
2018-01-12T20:20:21.495Z,99850.95
2018-01-12T20:22:50.102Z,99844.30
2018-01-12T20:25:18.955Z,99852.77
2018-01-12T20:27:47.251Z,99850.33
2018-01-12T20:30:15.534Z,99849.63
2018-01-12T20:32:43.844Z,99846.71
2018-01-12T20:35:12.133Z,99839.52
2018-01-12T20:37:40.414Z,99851.36
2018-01-12T20:40:08.706Z,99855.47
2018-01-12T20:42:36.982Z,99841.79
2018-01-12T20:45:05.271Z,99845.78
2018-01-12T20:47:33.603Z,99859.69
2018-01-12T20:50:01.874Z,99865.31
2018-01-12T20:52:30.177Z,99862.77
2018-01-12T20:54:58.423Z,99859.50
2018-01-12T20:57:26.703Z,99870.42
2018-01-12T20:59:55.016Z,99869.87
2018-01-12T21:02:23.289Z,99867.23
2018-01-12T21:04:52.452Z,99864.48
2018-01-12T21:07:20.708Z,99868.62
2018-01-12T21:09:49.042Z,99874.12
2018-01-12T21:12:18.254Z,99876.92
2018-01-12T21:14:46.577Z,99876.32
2018-01-12T21:17:14.855Z,99877.84
2018-01-12T21:19:43.138Z,99887.83
2018-01-12T21:22:11.443Z,99881.63
2018-01-12T21:24:39.752Z,99868.22
2018-01-12T21:27:08.043Z,99867.64
2018-01-12T21:29:36.617Z,99873.31
2018-01-12T21:32:04.935Z,99862.59
2018-01-12T21:34:33.248Z,99872.50
2018-01-12T21:37:01.549Z,99875.34
2018-01-12T21:39:29.832Z,99882.92
2018-01-12T21:41:58.133Z,99881.88
2018-01-12T21:44:26.421Z,99884.58
2018-01-12T21:46:54.731Z,99888.91
2018-01-12T21:49:23.039Z,99885.56
2018-01-12T21:51:51.502Z,99878.80
2018-01-12T21:54:19.828Z,99876.98
2018-01-12T21:56:48.123Z,99898.77
2018-01-12T21:59:16.426Z,99898.12
2018-01-12T22:01:44.723Z,99896.61
2018-01-12T22:04:13.028Z,99896.34
2018-01-12T22:06:41.316Z,99894.50
2018-01-12T22:09:09.622Z,99895.28
2018-01-12T22:11:37.923Z,99894.30
2018-01-12T22:14:06.213Z,99889.23
2018-01-12T22:16:34.519Z,99887.42
2018-01-12T22:19:02.818Z,99889.89
2018-01-12T22:21:31.090Z,99885.16
2018-01-12T22:23:59.375Z,99884.68
2018-01-12T22:26:27.682Z,99887.19
2018-01-12T22:28:57.008Z,99883.90
2018-01-12T22:31:25.306Z,99887.11
2018-01-12T22:33:53.566Z,99864.20
2018-01-12T22:36:21.929Z,99888.17
2018-01-12T22:38:50.248Z,99893.14
2018-01-12T22:41:18.529Z,99886.98
2018-01-12T22:43:46.833Z,99895.80
2018-01-12T22:46:15.125Z,99890.47
2018-01-12T22:48:44.070Z,99894.33
2018-01-12T22:51:12.418Z,99890.59
2018-01-12T22:53:40.709Z,99896.83
2018-01-12T22:56:08.988Z,99895.23
2018-01-12T22:58:37.267Z,99888.92
2018-01-12T23:01:05.582Z,99894.52
2018-01-12T23:03:33.889Z,99888.19
2018-01-12T23:06:02.188Z,99890.11
2018-01-12T23:08:30.511Z,99894.00
2018-01-12T23:10:58.834Z,99883.16
2018-01-12T23:13:27.127Z,99882.56
2018-01-12T23:15:55.399Z,99876.72
2018-01-12T23:18:23.698Z,99882.09
2018-01-12T23:20:52.360Z,99876.10
2018-01-12T23:23:20.637Z,99873.56
2018-01-12T23:25:48.926Z,99877.54
2018-01-12T23:28:17.251Z,99864.64
2018-01-12T23:30:47.010Z,99877.58
2018-01-12T23:33:15.906Z,99870.80
2018-01-12T23:35:44.871Z,99869.63
2018-01-12T23:38:13.166Z,99870.95
2018-01-12T23:40:41.460Z,99874.88
2018-01-12T23:43:09.792Z,99873.18
2018-01-12T23:45:38.389Z,99873.50
2018-01-12T23:48:06.676Z,99865.58
2018-01-12T23:50:34.966Z,99867.80
2018-01-12T23:53:03.324Z,99873.35
2018-01-12T23:55:31.978Z,99865.54
2018-01-12T23:58:00.295Z,99863.27
